Latest Weather Observations for Grafton AgRS

IDN60801

Issued at 7:32 pm EDT Friday 20 October 2017 (issued every 30 minutes, with the page automatically refreshed every 10 minutes)

About weather observations | Map of weather stations | Latest weather observations for NSW | Other Formats
Station Details ID: 058077 Name: GRAFTON RESEARCH STN Lat: -29.62 Lon: 152.96 Height: 25.0 m
Data from the previous 72 hours. | See also: Recent months for locations in New South Wales
Date/Time
EDT
Temp
°C
App
Temp
°C
Dew
Point
°C
Rel
Hum
%
Delta-T
°C
Wind Press
QNH
hPa
Press
MSL
hPa
Rain since
9am
mm
Dir  Spd
km/h
Gust
km/h
Spd
kts
Gust
kts
20/07:30pm 20.8 19.8 17.6 82 2.0 SSW 19 26 10 14 - - 0.0
20/07:00pm 21.6 20.7 18.2 81 2.1 S 20 30 11 16 - - 0.0
20/06:30pm 23.0 23.4 18.1 74 3.1 E 13 19 7 10 - - 0.0
20/06:00pm 24.0 24.4 18.2 70 3.6 ENE 13 20 7 11 - - 0.0
20/05:30pm 25.0 24.8 17.7 64 4.6 ENE 15 24 8 13 - - 0.0
20/05:00pm 26.8 26.0 18.1 59 5.5 ENE 19 26 10 14 - - 0.0
20/04:30pm 27.4 26.2 16.1 50 7.0 E 17 24 9 13 - - 0.0
20/04:00pm 28.5 28.2 15.4 45 8.0 NE 11 20 6 11 - - 0.0
20/03:30pm 28.3 28.1 15.6 46 7.8 NNE 11 20 6 11 - - 0.0
20/03:00pm 28.4 27.8 15.7 46 7.8 N 13 19 7 10 - - 0.0
20/02:30pm 28.0 27.0 15.6 46 7.6 NNE 15 20 8 11 - - 0.0
20/02:00pm 28.0 27.9 16.9 51 6.9 NNE 13 20 7 11 - - 0.0
20/01:30pm 27.3 26.9 15.3 48 7.3 N 11 22 6 12 - - 0.0
20/01:00pm 26.9 27.5 16.8 54 6.3 NNW 9 17 5 9 - - 0.0
20/12:30pm 26.6 27.0 15.3 50 6.9 NE 7 20 4 11 - - 0.0
20/12:00pm 26.1 26.2 16.4 55 6.0 N 11 20 6 11 - - 0.0
20/11:30am 25.8 24.9 14.9 51 6.6 NW 13 20 7 11 - - 0.0
20/11:00am 25.1 24.0 15.4 55 5.9 N 15 20 8 11 - - 0.0
20/10:30am 24.4 23.3 14.2 53 6.0 N 13 22 7 12 - - 0.0
20/10:00am 23.6 23.4 15.6 61 4.8 NW 11 19 6 10 - - 0.0
20/09:30am 22.6 22.7 16.4 68 3.8 NW 11 20 6 11 - - 0.0
20/09:00am 21.6 21.9 15.9 70 3.4 NW 9 15 5 8 - - 0.0
20/08:30am 20.2 21.1 16.0 77 2.5 WNW 6 9 3 5 - - 0.0
20/08:00am 18.5 19.3 16.3 87 1.3 N 7 9 4 5 - - 0.0
20/07:30am 16.9 18.0 15.6 92 0.8 NNW 4 7 2 4 - - 0.0
20/07:00am 15.6 16.4 14.8 95 0.5 NNW 4 7 2 4 - - 0.0
20/06:30am 15.3 16.8 14.7 96 0.3 CALM 0 0 0 0 - - 0.0
20/06:00am 15.4 17.0 14.8 96 0.3 CALM 0 0 0 0 - - 0.0
20/05:30am 15.1 16.3 13.8 92 0.7 CALM 0 0 0 0 - - 0.0
20/05:00am 16.1 17.6 14.6 91 0.9 CALM 0 0 0 0 - - 0.0
20/04:30am 16.4 18.0 14.8 90 0.9 CALM 0 0 0 0 - - 0.0
20/04:00am 16.8 18.5 15.3 91 0.9 CALM 0 0 0 0 - - 0.0
20/03:30am 17.4 19.1 15.2 87 1.3 CALM 0 0 0 0 - - 0.0
20/03:00am 17.8 19.6 15.4 86 1.4 CALM 0 0 0 0 - - 0.0
20/02:30am 17.9 19.7 15.5 86 1.4 CALM 0 0 0 0 - - 0.0
20/02:00am 18.0 19.8 15.6 86 1.4 CALM 0 0 0 0 - - 0.0
20/01:30am 18.0 19.7 15.3 84 1.6 CALM 0 0 0 0 - - 0.0
20/01:00am 17.8 19.5 15.2 85 1.5 CALM 0 0 0 0 - - 0.0
20/12:30am 17.5 19.2 15.1 86 1.4 CALM 0 0 0 0 - - 0.0
20/12:00am 17.9 19.5 15.0 83 1.7 CALM 0 0 0 0 - - 0.0
 
Date/Time
EDT
Temp
°C
App
Temp
°C
Dew
Point
°C
Rel
Hum
%
Delta-T
°C
Wind Press
QNH
hPa
Press
MSL
hPa
Rain since
9am
mm
Dir  Spd
km/h
Gust
km/h
Spd
kts
Gust
kts
19/11:30pm 18.0 19.6 14.9 82 1.8 CALM 0 0 0 0 - - 0.0
19/11:00pm 18.0 19.5 14.7 81 1.9 CALM 0 0 0 0 - - 0.0
19/10:30pm 17.9 19.4 14.6 81 1.9 CALM 0 0 0 0 - - 0.0
19/10:00pm 17.9 18.6 14.4 80 2.0 NNE 4 7 2 4 - - 0.0
19/09:30pm 18.4 18.1 14.5 78 2.3 NNE 9 13 5 7 - - 0.0
19/09:00pm 18.6 18.7 14.5 77 2.4 NNE 7 9 4 5 - - 0.0
19/08:30pm 19.0 19.3 14.5 75 2.6 NNE 6 9 3 5 - - 0.0
19/08:00pm 19.1 19.4 14.4 74 2.7 NNE 6 9 3 5 - - 0.0
19/07:30pm 19.7 19.7 14.3 71 3.1 NE 7 15 4 8 - - 0.0
19/07:00pm 20.2 19.9 14.3 69 3.4 NE 9 17 5 9 - - 0.0
19/06:30pm 21.0 20.4 14.6 67 3.8 NE 11 20 6 11 - - 0.0
19/06:00pm 22.1 21.5 14.5 62 4.5 NE 11 17 6 9 - - 0.0
19/05:30pm 22.9 22.1 15.0 61 4.7 NNE 13 24 7 13 - - 0.0
19/05:00pm 23.2 22.1 14.2 57 5.3 NE 13 24 7 13 - - 0.0
19/04:30pm 23.5 21.9 15.0 59 5.1 NNE 17 26 9 14 - - 0.0
19/04:00pm 23.7 22.7 15.5 60 4.9 ENE 15 24 8 13 - - 0.0
19/03:30pm 24.6 24.4 15.8 58 5.3 NE 11 20 6 11 - - 0.0
19/03:00pm 23.6 22.0 15.1 59 5.1 ENE 17 24 9 13 - - 0.0
19/02:30pm 23.8 22.2 15.0 57 5.3 ENE 17 24 9 13 - - 0.0
19/02:00pm 24.2 23.2 15.7 59 5.1 ENE 15 26 8 14 - - 0.0
19/01:30pm 23.3 22.4 14.8 59 5.0 NE 13 24 7 13 - - 0.0
19/01:00pm 23.6 23.2 16.1 62 4.6 ENE 13 20 7 11 - - 0.0
19/12:30pm 23.2 22.2 14.7 58 5.0 ENE 13 24 7 13 - - 0.0
19/12:00pm 23.5 22.6 14.8 58 5.2 NNE 13 19 7 10 - - 0.0
19/11:30am 23.1 22.6 13.8 55 5.4 NNE 9 15 5 8 - - 0.0
19/11:00am 23.3 22.8 13.8 55 5.5 NE 9 17 5 9 - - 0.0
19/10:30am 22.8 23.3 15.6 64 4.3 NW 7 11 4 6 - - 0.0
19/10:00am 22.0 23.4 16.3 70 3.5 SW 4 7 2 4 - - 0.0
19/09:30am 21.1 21.4 16.1 73 3.0 SSE 9 15 5 8 - - 0.0
19/09:00am 20.9 22.4 17.7 82 2.0 SSW 6 9 3 5 - - 0.2
19/08:30am 20.0 21.1 18.0 88 1.2 SW 9 13 5 7 - - 0.2
19/08:00am 18.6 20.0 17.3 92 0.8 W 6 7 3 4 - - 0.2
19/07:30am 18.2 19.5 17.0 93 0.7 WSW 6 9 3 5 - - 0.2
19/07:00am 18.0 19.3 17.2 95 0.5 WNW 6 7 3 4 - - 0.2
19/06:30am 17.5 18.4 16.7 95 0.5 WNW 7 7 4 4 - - 0.2
19/06:00am 17.3 19.5 16.5 95 0.5 CALM 0 0 0 0 - - 0.2
19/05:30am 17.5 19.7 16.5 94 0.6 CALM 0 0 0 0 - - 0.2
19/05:00am 17.5 19.7 16.5 94 0.6 CALM 0 0 0 0 - - 0.2
19/04:30am 17.4 19.5 16.3 93 0.7 CALM 0 0 0 0 - - 0.2
19/04:00am 17.4 19.6 16.4 94 0.6 CALM 0 0 0 0 - - 0.2
19/03:30am 17.3 19.4 16.3 94 0.6 CALM 0 0 0 0 - - 0.2
19/03:00am 17.2 19.3 16.2 94 0.6 CALM 0 0 0 0 - - 0.2
19/02:30am 17.3 19.4 16.3 94 0.6 CALM 0 0 0 0 - - 0.2
19/02:00am 17.2 19.2 16.1 93 0.7 CALM 0 0 0 0 - - 0.2
19/01:30am 17.2 19.2 16.1 93 0.7 CALM 0 0 0 0 - - 0.2
19/01:00am 17.4 19.4 16.1 92 0.8 CALM 0 0 0 0 - - 0.2
19/12:30am 17.3 19.3 16.0 92 0.8 CALM 0 0 0 0 - - 0.2
19/12:00am 17.5 19.5 16.0 91 0.9 CALM 0 0 0 0 - - 0.2
 
Date/Time
EDT
Temp
°C
App
Temp
°C
Dew
Point
°C
Rel
Hum
%
Delta-T
°C
Wind Press
QNH
hPa
Press
MSL
hPa
Rain since
9am
mm
Dir  Spd
km/h
Gust
km/h
Spd
kts
Gust
kts
18/11:30pm 17.8 19.4 16.0 89 1.1 NW 2 6 1 3 - - 0.0
18/11:00pm 17.8 18.8 16.3 91 0.9 NW 6 7 3 4 - - 0.0
18/10:30pm 18.3 19.1 16.3 88 1.2 N 7 11 4 6 - - 0.0
18/10:00pm 18.4 20.2 15.6 84 1.7 CALM 0 0 0 0 - - 0.0
18/09:30pm 18.5 20.4 15.7 84 1.7 CALM 0 0 0 0 - - 0.0
18/09:00pm 18.8 20.6 15.5 81 1.9 CALM 0 0 0 0 - - 0.0
18/08:30pm 19.3 20.3 15.4 78 2.3 NE 4 7 2 4 - - 0.0
18/08:00pm 19.3 19.9 15.2 77 2.4 ENE 6 7 3 4 - - 0.0
18/07:30pm 19.5 20.1 15.4 77 2.4 ENE 6 9 3 5 - - 0.0
18/07:00pm 19.9 19.9 15.3 75 2.7 ENE 9 17 5 9 - - 0.0
18/06:30pm 20.3 19.5 15.1 72 3.1 E 13 19 7 10 - - 0.0
18/06:00pm 20.7 19.9 15.0 70 3.4 E 13 20 7 11 - - 0.0
18/05:30pm 21.0 20.2 15.1 69 3.5 E 13 20 7 11 - - 0.0
18/05:00pm 21.5 20.2 14.9 66 3.9 E 15 22 8 12 - - 0.0
18/04:30pm 21.7 20.6 15.3 67 3.8 E 15 24 8 13 - - 0.0
18/04:00pm 21.9 20.3 15.0 65 4.1 E 17 26 9 14 - - 0.0
18/03:30pm 22.0 20.6 14.6 63 4.4 E 15 20 8 11 - - 0.0
18/03:00pm 22.1 20.5 15.0 64 4.2 E 17 26 9 14 - - 0.0
18/02:30pm 22.4 20.6 14.5 61 4.7 ESE 17 22 9 12 - - 0.0
18/02:00pm 22.4 20.5 15.3 64 4.2 ESE 19 28 10 15 - - 0.0
18/01:30pm 22.6 20.5 15.2 63 4.4 ESE 20 30 11 16 - - 0.0
18/01:00pm 22.5 21.0 15.4 64 4.2 E 17 24 9 13 - - 0.0
18/12:30pm 23.4 22.1 14.9 59 5.1 E 15 22 8 12 - - 0.0
18/12:00pm 22.3 21.2 15.4 65 4.1 E 15 22 8 12 - - 0.0
18/11:30am 22.1 20.8 15.7 67 3.8 E 17 24 9 13 - - 0.0
18/11:00am 21.7 19.9 15.5 68 3.7 ESE 19 26 10 14 - - 0.0
18/10:30am 21.5 20.3 15.1 67 3.8 E 15 24 8 13 - - 0.0
18/10:00am 20.8 21.2 16.4 76 2.7 E 9 17 5 9 - - 0.0
18/09:30am 20.5 21.9 17.3 82 2.0 SW 6 9 3 5 - - 0.0
18/09:00am 19.7 20.8 17.1 85 1.6 SSW 7 9 4 5 - - 0.4
18/08:30am 19.0 20.1 17.1 89 1.2 SW 7 11 4 6 - - 0.4
18/08:00am 18.3 19.4 17.0 92 0.8 SW 7 9 4 5 - - 0.4
18/07:30am 17.8 18.8 16.8 94 0.6 WSW 7 9 4 5 - - 0.4
18/07:00am 17.3 19.4 16.3 94 0.6 CALM 0 0 0 0 - - 0.4
18/06:30am 17.1 19.1 16.1 94 0.6 CALM 0 0 0 0 - - 0.4
18/06:00am 16.9 18.8 15.8 93 0.6 CALM 0 0 0 0 - - 0.4
18/05:30am 16.8 18.7 15.8 94 0.6 CALM 0 0 0 0 - - 0.4
18/05:00am 17.0 17.7 15.7 92 0.8 WSW 6 7 3 4 - - 0.4
18/04:30am 17.0 17.7 15.7 92 0.8 SW 6 9 3 5 - - 0.4
18/04:00am 16.8 17.3 15.5 92 0.8 WSW 7 7 4 4 - - 0.4
18/03:30am 16.6 17.1 15.5 93 0.6 SW 7 7 4 4 - - 0.4
18/03:00am 16.7 17.2 15.6 93 0.6 SW 7 9 4 5 - - 0.4
18/02:30am 16.7 18.1 15.4 92 0.8 SSW 2 6 1 3 - - 0.4
18/02:00am 16.9 17.3 15.4 91 0.9 SW 7 9 4 5 - - 0.4
18/01:30am 17.0 17.5 15.5 91 0.9 SSW 7 9 4 5 - - 0.4
18/01:00am 17.1 18.1 15.4 90 1.0 SSE 4 7 2 4 - - 0.2
18/12:30am 16.6 16.9 15.0 90 0.9 SW 7 7 4 4 - - 0.2
18/12:00am 16.8 18.0 15.0 89 1.0 WNW 2 6 1 3 - - 0.2
 
Date/Time
EDT
Temp
°C
App
Temp
°C
Dew
Point
°C
Rel
Hum
%
Delta-T
°C
Wind Press
QNH
hPa
Press
MSL
hPa
Rain since
9am
mm
Dir  Spd
km/h
Gust
km/h
Spd
kts
Gust
kts
17/11:30pm 17.4 19.0 15.0 86 1.4 CALM 0 0 0 0 - - 0.0
17/11:00pm 17.7 18.0 15.0 84 1.6 SE 7 11 4 6 - - 0.0
17/10:30pm 17.9 18.1 14.8 82 1.8 S 7 7 4 4 - - 0.0
17/10:00pm 17.8 18.3 15.1 84 1.6 SSW 6 7 3 4 - - 0.0
17/09:30pm 17.6 18.0 14.7 83 1.7 SSE 6 7 3 4 - - 0.0
17/09:00pm 18.0 18.3 14.5 80 2.0 SE 6 9 3 5 - - 0.0
17/08:30pm 18.5 18.3 14.6 78 2.3 ESE 9 13 5 7 - - 0.0
17/08:00pm 19.0 18.1 14.9 77 2.4 ESE 13 15 7 8 - - 0.0

Other Formats:

Comma delimited format used in spreadsheet applications
http://www.bom.gov.au/fwo/IDN60801/IDN60801.95571.axf

JavaScript Object Notation format (JSON) in row-major order
http://www.bom.gov.au/fwo/IDN60801/IDN60801.95571.json